This is the latest recevied weather packets stored in our database for station/object DO6DD-13. If no packets are shown the sender has not sent any weather packets the latest 10 day(s).
| Time | Temp. | Humidity | Pressure | Rain* | Wind** | Luminosity | Snow |
|---|---|---|---|---|---|---|---|
| 1777767021 | 14.44° C | 93% | 1014 hPa | - | - | 2 W/m² | - |
| 1777766421 | 15° C | 93% | 1014.1 hPa | - | - | 2 W/m² | - |
| 1777766121 | 15° C | 93% | 1014.1 hPa | - | - | 2 W/m² | - |
| 1777765230 | 15° C | 93% | 1014.1 hPa | - | - | 2 W/m² | - |
| 1777764629 | 15° C | 93% | 1014.3 hPa | - | - | 2 W/m² | - |
| 1777764019 | 15° C | 93% | 1014.5 hPa | - | - | 2 W/m² | - |
| 1777763428 | 15° C | 92% | 1014.5 hPa | - | - | 2 W/m² | - |
| 1777762828 | 15° C | 92% | 1014.4 hPa | - | - | 2 W/m² | - |
| 1777762227 | 15.56° C | 91% | 1014.5 hPa | - | - | 2 W/m² | - |
| 1777761627 | 15.56° C | 90% | 1014.7 hPa | - | - | 2 W/m² | - |
| 1777761026 | 15.56° C | 89% | 1014.9 hPa | - | - | 2 W/m² | - |
| 1777760426 | 15.56° C | 88% | 1015.1 hPa | - | - | 2 W/m² | - |
| 1777759825 | 16.11° C | 86% | 1015.4 hPa | - | - | 2 W/m² | - |
| 1777759225 | 16.11° C | 83% | 1015.7 hPa | - | - | 2 W/m² | - |
| 1777758635 | 16.67° C | 80% | 1015.8 hPa | - | - | 2 W/m² | - |
| 1777758034 | 17.22° C | 78% | 1016.1 hPa | - | - | 2 W/m² | - |
| 1777757423 | 17.78° C | 76% | 1016.2 hPa | - | - | 2 W/m² | - |
| 1777757123 | 17.78° C | 75% | 1016.3 hPa | - | - | 2 W/m² | - |
| 1777756233 | 18.33° C | 73% | 1016.4 hPa | - | - | 2 W/m² | - |
| 1777755622 | 18.33° C | 74% | 1016.2 hPa | - | - | 2 W/m² | - |
| 1777755022 | 18.33° C | 74% | 1015.7 hPa | - | - | 2 W/m² | - |
| 1777754421 | 18.33° C | 73% | 1015.6 hPa | - | - | 2 W/m² | - |
| 1777753831 | 18.33° C | 72% | 1015.7 hPa | - | - | 2 W/m² | - |
| 1777753220 | 19.44° C | 69% | 1015.9 hPa | - | - | 2 W/m² | - |
| 1777752620 | 20° C | 63% | 1015.8 hPa | - | - | 2 W/m² | - |
* Rain since midnight (hover to see other rain measurements)
** Current wind speed in m/s (hover to see current wind gust speed)